createdAt,value
2022-09-15T00:00:59.027Z,101.14
2022-09-15T00:01:59.059Z,101.75
2022-09-15T00:02:59.014Z,101.88
2022-09-15T00:03:58.969Z,102.06
2022-09-15T00:04:59.121Z,102.06
2022-09-15T00:05:58.959Z,102.06
2022-09-15T00:06:58.943Z,101.82
2022-09-15T00:07:58.936Z,101.50
2022-09-15T00:08:58.929Z,100.83
2022-09-15T00:09:58.903Z,100.35
2022-09-15T00:10:59.080Z,99.99
2022-09-15T00:11:58.894Z,99.39
2022-09-15T00:12:58.878Z,99.63
2022-09-15T00:13:58.868Z,98.80
2022-09-15T00:14:58.860Z,98.98
2022-09-15T00:15:58.839Z,99.39
2022-09-15T00:16:59.204Z,99.27
2022-09-15T00:17:58.821Z,99.51
2022-09-15T00:18:58.816Z,99.09
2022-09-15T00:19:58.798Z,99.15
2022-09-15T00:20:58.802Z,98.86
2022-09-15T00:21:58.781Z,98.57
2022-09-15T00:22:58.979Z,98.33
2022-09-15T00:23:58.759Z,97.93
2022-09-15T00:24:58.748Z,97.53
2022-09-15T00:25:58.739Z,97.47
2022-09-15T00:26:58.726Z,97.08
2022-09-15T00:27:58.710Z,97.93
2022-09-15T00:28:58.857Z,97.08
2022-09-15T00:29:58.694Z,97.08
2022-09-15T00:30:58.747Z,96.46
2022-09-15T00:31:58.660Z,96.29
2022-09-15T00:32:58.667Z,96.01
2022-09-15T00:33:58.647Z,96.13
2022-09-15T00:34:58.799Z,96.18
2022-09-15T00:35:58.619Z,95.85
2022-09-15T00:36:58.618Z,95.90
2022-09-15T00:37:58.599Z,95.41
2022-09-15T00:38:58.600Z,95.74
2022-09-15T00:39:58.641Z,95.19
2022-09-15T00:40:58.919Z,95.25
2022-09-15T00:41:58.565Z,94.71
2022-09-15T00:42:58.554Z,95.03
2022-09-15T00:43:58.538Z,95.30
2022-09-15T00:44:58.549Z,95.96
2022-09-15T00:45:58.556Z,95.96
2022-09-15T00:47:18.152Z,95.85
2022-09-15T00:47:59.500Z,95.85
2022-09-15T00:48:58.488Z,95.68
2022-09-15T00:49:59.497Z,96.07
2022-09-15T00:50:58.460Z,95.74
2022-09-15T00:51:58.453Z,95.68
2022-09-15T00:52:58.600Z,95.57
2022-09-15T00:53:58.433Z,96.18
2022-09-15T00:54:58.463Z,95.57
2022-09-15T00:55:58.570Z,95.47
2022-09-15T00:56:58.400Z,95.08
2022-09-15T00:57:58.391Z,96.46
2022-09-15T00:58:58.383Z,96.24
2022-09-15T00:59:58.476Z,95.14
2022-09-15T01:00:58.422Z,95.03
2022-09-15T01:01:58.564Z,95.52
2022-09-15T01:02:58.333Z,95.30
2022-09-15T01:03:58.324Z,94.87
2022-09-15T01:04:58.874Z,94.92
2022-09-15T01:05:58.304Z,95.36
2022-09-15T01:06:58.295Z,94.92
2022-09-15T01:07:58.435Z,95.30
2022-09-15T01:08:58.269Z,94.92
2022-09-15T01:09:58.258Z,94.39
2022-09-15T01:10:58.249Z,94.65
2022-09-15T01:11:58.233Z,95.25
2022-09-15T01:12:58.219Z,94.60
2022-09-15T01:13:58.379Z,94.33
2022-09-15T01:14:58.203Z,94.28
2022-09-15T01:15:58.193Z,94.82
2022-09-15T01:16:58.213Z,94.76
2022-09-15T01:17:58.177Z,94.12
2022-09-15T01:18:58.168Z,94.60
2022-09-15T01:19:58.325Z,94.87
2022-09-15T01:20:58.140Z,95.19
2022-09-15T01:21:58.999Z,95.90
2022-09-15T01:22:58.127Z,95.30
2022-09-15T01:23:58.100Z,95.90
2022-09-15T01:24:58.429Z,95.74
2022-09-15T01:25:58.102Z,96.29
2022-09-15T01:26:58.070Z,95.08
2022-09-15T01:27:58.060Z,95.63
2022-09-15T01:28:58.063Z,95.63
2022-09-15T01:29:58.045Z,95.19
2022-09-15T01:30:58.356Z,96.01
2022-09-15T01:31:58.074Z,95.85
2022-09-15T01:32:58.011Z,95.08
2022-09-15T01:33:57.998Z,95.30
2022-09-15T01:34:57.995Z,95.74
2022-09-15T01:35:57.973Z,96.13
2022-09-15T01:36:58.130Z,95.52
2022-09-15T01:37:57.948Z,95.36
2022-09-15T01:38:58.318Z,95.63
2022-09-15T01:39:57.958Z,95.74
2022-09-15T01:40:57.927Z,95.74
2022-09-15T01:41:57.910Z,95.52
2022-09-15T01:42:57.900Z,96.07
2022-09-15T01:43:57.892Z,96.46
2022-09-15T01:44:58.200Z,96.18
2022-09-15T01:45:57.901Z,95.63
2022-09-15T01:46:57.870Z,96.18
2022-09-15T01:47:57.847Z,96.74
2022-09-15T01:48:57.840Z,97.36
2022-09-15T01:49:57.852Z,96.79
2022-09-15T01:50:57.971Z,97.76
2022-09-15T01:51:57.882Z,97.19
2022-09-15T01:52:57.784Z,97.76
2022-09-15T01:53:57.788Z,98.05
2022-09-15T01:54:57.779Z,98.28
2022-09-15T01:55:57.760Z,98.28
2022-09-15T01:56:57.980Z,98.05
2022-09-15T01:57:57.754Z,97.93
2022-09-15T01:58:57.721Z,97.64
2022-09-15T01:59:57.712Z,97.64
2022-09-15T02:00:57.847Z,97.02
2022-09-15T02:01:57.707Z,97.76
2022-09-15T02:02:58.044Z,97.70
2022-09-15T02:03:57.676Z,97.36
2022-09-15T02:04:57.660Z,96.85
2022-09-15T02:05:57.649Z,96.91
2022-09-15T02:06:57.642Z,96.07
2022-09-15T02:07:57.626Z,96.18
2022-09-15T02:08:58.318Z,96.68
2022-09-15T02:09:57.610Z,95.30
2022-09-15T02:10:57.608Z,95.25
2022-09-15T02:11:57.582Z,94.76
2022-09-15T02:12:57.611Z,94.55
2022-09-15T02:13:57.569Z,94.49
2022-09-15T02:14:57.774Z,95.65
2022-09-15T02:15:57.600Z,95.54
2022-09-15T02:16:57.545Z,95.21
2022-09-15T02:17:57.526Z,95.21
2022-09-15T02:18:57.522Z,94.46
2022-09-15T02:22:14.615Z,112.90
2022-09-15T02:23:14.436Z,106.43
2022-09-15T02:24:14.428Z,103.07
2022-09-15T02:25:14.643Z,100.65
2022-09-15T02:26:14.415Z,99.51
2022-09-15T02:27:14.403Z,98.62
2022-09-15T02:28:14.386Z,97.76
2022-09-15T02:29:14.370Z,96.40
2022-09-15T02:30:14.379Z,95.96
2022-09-15T02:31:14.562Z,94.76
2022-09-15T02:32:14.340Z,94.55
2022-09-15T02:33:14.344Z,94.33
2022-09-15T02:34:14.325Z,95.87
2022-09-15T02:35:14.314Z,95.65
2022-09-15T02:36:14.296Z,95.76
2022-09-15T02:37:14.486Z,94.17
2022-09-15T02:38:14.280Z,95.76
2022-09-15T02:39:14.265Z,95.54
2022-09-15T02:40:14.300Z,95.54
2022-09-15T02:41:14.245Z,95.10
2022-09-15T02:42:14.253Z,94.89
2022-09-15T02:43:14.949Z,94.35
2022-09-15T02:44:14.209Z,94.57
2022-09-15T02:45:14.211Z,93.93
2022-09-15T02:46:14.282Z,93.51
2022-09-15T02:47:14.183Z,92.99
2022-09-15T02:48:14.165Z,92.68
2022-09-15T02:49:14.340Z,92.06
2022-09-15T02:50:14.140Z,92.06
2022-09-15T02:51:14.135Z,91.86
2022-09-15T02:52:14.137Z,91.36
2022-09-15T02:53:14.115Z,90.86
2022-09-15T02:54:14.106Z,90.56
2022-09-15T02:55:14.250Z,89.88
2022-09-15T02:56:14.077Z,89.59
2022-09-15T02:57:14.072Z,89.21
2022-09-15T02:58:14.065Z,88.92
2022-09-15T02:59:14.056Z,89.02
2022-09-15T03:00:14.041Z,89.11
2022-09-15T03:01:14.241Z,89.40
2022-09-15T03:02:14.104Z,89.30
2022-09-15T03:03:14.006Z,89.49
2022-09-15T03:04:14.006Z,89.78
2022-09-15T03:05:13.998Z,89.59
2022-09-15T03:06:14.155Z,89.78
2022-09-15T03:07:13.982Z,89.30
2022-09-15T03:08:13.961Z,88.92
2022-09-15T03:09:13.955Z,89.11
2022-09-15T03:10:13.945Z,89.02
2022-09-15T03:11:13.928Z,88.73
2022-09-15T03:12:14.096Z,88.45
2022-09-15T03:13:13.914Z,88.83
2022-09-15T03:14:13.900Z,89.40
2022-09-15T03:15:13.875Z,88.92
2022-09-15T03:16:14.064Z,88.92
2022-09-15T03:17:13.867Z,88.73
2022-09-15T03:18:13.847Z,88.92
2022-09-15T03:19:13.844Z,89.69
2022-09-15T03:20:13.828Z,88.73
2022-09-15T03:21:14.065Z,88.54
2022-09-15T03:22:13.805Z,88.17
2022-09-15T03:23:13.808Z,87.52
2022-09-15T03:24:13.785Z,87.34
2022-09-15T03:25:13.779Z,87.25
2022-09-15T03:26:13.757Z,86.70
2022-09-15T03:27:14.088Z,86.89
2022-09-15T03:28:13.739Z,86.61
2022-09-15T03:29:13.730Z,86.70
2022-09-15T03:30:13.707Z,86.52
2022-09-15T03:31:13.714Z,86.79
2022-09-15T03:32:13.697Z,86.52
2022-09-15T03:33:13.847Z,86.52
2022-09-15T03:34:13.751Z,86.70
2022-09-15T03:35:13.668Z,86.61
2022-09-15T03:36:13.662Z,86.17
2022-09-15T03:37:13.645Z,85.64
2022-09-15T03:38:13.644Z,85.55
2022-09-15T03:39:13.780Z,85.64
2022-09-15T03:40:13.660Z,85.55
2022-09-15T03:41:13.609Z,85.46
2022-09-15T03:42:13.585Z,85.11
2022-09-15T03:43:18.526Z,84.94
2022-09-15T03:44:15.279Z,84.94
2022-09-15T03:45:13.546Z,84.59
2022-09-15T03:46:13.566Z,84.08
2022-09-15T03:47:13.537Z,83.58
2022-09-15T03:48:13.535Z,83.24
2022-09-15T03:49:13.517Z,82.58
2022-09-15T03:50:13.783Z,82.26
2022-09-15T03:51:13.498Z,81.61
2022-09-15T03:52:13.507Z,80.98
2022-09-15T03:53:13.462Z,80.98
2022-09-15T03:54:13.457Z,80.13
2022-09-15T03:55:13.446Z,79.82
2022-09-15T03:56:13.653Z,79.36
2022-09-15T03:57:13.426Z,78.91
2022-09-15T03:58:13.413Z,78.91
2022-09-15T03:59:13.406Z,78.76
2022-09-15T04:00:13.390Z,78.39
2022-09-15T04:01:13.587Z,78.03
2022-09-15T04:02:13.435Z,77.81
2022-09-15T04:03:13.357Z,77.67
2022-09-15T04:04:13.349Z,78.10
2022-09-15T04:05:13.347Z,78.39
2022-09-15T04:06:13.341Z,78.69
2022-09-15T04:07:13.496Z,78.54
2022-09-15T04:08:13.317Z,79.14
2022-09-15T04:09:13.285Z,79.21
2022-09-15T04:10:13.289Z,79.67
2022-09-15T04:11:13.276Z,79.36
2022-09-15T04:12:13.265Z,79.67
2022-09-15T04:13:13.489Z,79.67
2022-09-15T04:14:13.237Z,79.67
2022-09-15T04:15:13.238Z,79.74
2022-09-15T04:16:13.257Z,79.51
2022-09-15T04:17:13.196Z,79.74
2022-09-15T04:18:13.197Z,80.20
2022-09-15T04:19:13.357Z,80.67
2022-09-15T04:20:13.177Z,80.05
2022-09-15T04:21:13.169Z,80.20
2022-09-15T04:22:17.528Z,80.59
2022-09-15T04:23:13.142Z,80.51
2022-09-15T04:24:13.143Z,80.67
2022-09-15T04:25:13.302Z,80.90
2022-09-15T04:26:13.139Z,80.28
2022-09-15T04:27:13.108Z,80.05
2022-09-15T04:28:13.078Z,79.90
2022-09-15T04:29:13.082Z,79.59
2022-09-15T04:30:13.068Z,79.74
2022-09-15T04:31:13.225Z,80.20
2022-09-15T04:32:13.059Z,79.90
2022-09-15T04:33:13.038Z,80.36
2022-09-15T04:34:13.031Z,80.28
2022-09-15T04:35:13.018Z,81.06
2022-09-15T04:36:12.998Z,80.75
2022-09-15T04:37:13.147Z,80.90
2022-09-15T04:38:12.999Z,81.54
2022-09-15T04:39:12.960Z,81.46
2022-09-15T04:40:13.028Z,81.38
2022-09-15T04:41:12.957Z,81.14
2022-09-15T04:42:12.953Z,81.14
2022-09-15T04:43:13.093Z,80.98
2022-09-15T04:44:12.934Z,80.90
2022-09-15T04:45:12.953Z,81.30
2022-09-15T04:46:12.990Z,81.38
2022-09-15T04:47:12.880Z,81.30
2022-09-15T04:48:12.894Z,81.46
2022-09-15T04:49:13.027Z,81.61
2022-09-15T04:50:12.864Z,81.54
2022-09-15T04:51:12.857Z,81.78
2022-09-15T04:52:12.830Z,81.54
2022-09-15T04:53:12.838Z,81.54
2022-09-15T04:54:12.817Z,81.78
2022-09-15T04:55:12.975Z,81.61
2022-09-15T04:56:12.783Z,81.46
2022-09-15T04:57:12.827Z,81.78
2022-09-15T04:58:12.766Z,81.46
2022-09-15T04:59:12.756Z,81.22
2022-09-15T05:00:12.741Z,80.28
2022-09-15T05:01:12.984Z,79.90
2022-09-15T05:02:12.737Z,79.74
2022-09-15T05:03:12.707Z,79.29
2022-09-15T05:04:12.705Z,79.14
2022-09-15T05:05:12.695Z,78.91
2022-09-15T05:06:12.679Z,78.76
2022-09-15T05:07:12.840Z,79.06
2022-09-15T05:08:12.658Z,78.39
2022-09-15T05:09:12.672Z,78.54
2022-09-15T05:10:12.631Z,78.32
2022-09-15T05:11:12.633Z,77.52
2022-09-15T05:12:12.622Z,77.52
2022-09-15T05:13:12.762Z,78.10
2022-09-15T05:14:12.598Z,78.25
2022-09-15T05:15:12.598Z,78.47
2022-09-15T05:16:12.631Z,78.99
2022-09-15T05:17:12.565Z,79.21
2022-09-15T05:18:12.550Z,78.54
2022-09-15T05:19:12.742Z,78.25
2022-09-15T05:20:12.527Z,78.69
2022-09-15T05:21:12.509Z,79.14
2022-09-15T05:22:12.506Z,80.28
2022-09-15T05:23:12.488Z,80.75
2022-09-15T05:24:12.485Z,81.61
2022-09-15T05:25:12.661Z,82.18
2022-09-15T05:26:12.459Z,83.33
2022-09-15T05:27:12.458Z,83.91
2022-09-15T05:28:12.440Z,83.66
2022-09-15T05:29:12.430Z,83.91
2022-09-15T05:31:13.611Z,83.49
2022-09-15T05:32:12.390Z,83.49
2022-09-15T05:33:12.379Z,83.41
2022-09-15T05:34:12.366Z,83.58
2022-09-15T05:35:12.362Z,83.24
2022-09-15T05:36:12.532Z,83.41
2022-09-15T05:37:12.343Z,83.08
2022-09-15T05:38:12.319Z,83.08
2022-09-15T05:39:12.315Z,83.49
2022-09-15T05:40:12.336Z,83.33
2022-09-15T05:41:12.298Z,83.66
2022-09-15T05:42:12.439Z,83.75
2022-09-15T05:43:12.280Z,83.49
2022-09-15T05:44:12.291Z,83.83
2022-09-15T05:45:12.258Z,84.42
2022-09-15T05:46:12.314Z,84.77
2022-09-15T05:47:12.229Z,85.20
2022-09-15T05:48:12.540Z,85.55
2022-09-15T05:49:12.217Z,85.46
2022-09-15T05:50:12.201Z,85.46
2022-09-15T05:51:12.198Z,85.90
2022-09-15T05:52:12.179Z,86.43
2022-09-15T05:53:12.167Z,85.99
2022-09-15T05:54:12.394Z,86.89
2022-09-15T05:55:12.161Z,86.70
2022-09-15T05:56:12.136Z,86.17
2022-09-15T05:57:12.123Z,86.26
2022-09-15T05:58:12.119Z,85.81
2022-09-15T05:59:12.108Z,85.90
2022-09-15T06:00:12.309Z,86.17
2022-09-15T06:01:12.108Z,86.61
2022-09-15T06:02:12.147Z,86.35
2022-09-15T06:03:12.103Z,86.79
2022-09-15T06:04:12.047Z,86.89
2022-09-15T06:05:12.033Z,87.16
2022-09-15T06:06:12.205Z,87.52
2022-09-15T06:07:12.016Z,86.89
2022-09-15T06:08:12.000Z,86.89
2022-09-15T06:09:12.001Z,87.52
2022-09-15T06:10:11.995Z,87.16
2022-09-15T06:11:12.100Z,86.79
2022-09-15T06:12:12.137Z,86.70
2022-09-15T06:13:11.951Z,85.64
2022-09-15T06:14:11.940Z,85.20
2022-09-15T06:15:11.929Z,84.94
2022-09-15T06:16:12.042Z,84.94
2022-09-15T06:17:11.908Z,84.59
2022-09-15T06:18:12.059Z,84.00
2022-09-15T06:19:11.880Z,84.17
2022-09-15T06:20:11.880Z,83.91
2022-09-15T06:21:11.861Z,84.17
2022-09-15T06:22:11.854Z,84.42
2022-09-15T06:23:11.870Z,84.42
2022-09-15T06:24:11.996Z,84.34
2022-09-15T06:25:11.819Z,84.17
2022-09-15T06:26:11.813Z,83.91
2022-09-15T06:27:11.799Z,83.83
2022-09-15T06:28:11.790Z,84.17
2022-09-15T06:29:11.774Z,83.41
2022-09-15T06:30:12.010Z,83.58
2022-09-15T06:31:11.750Z,83.75
2022-09-15T06:32:11.765Z,84.59
2022-09-15T06:33:11.740Z,84.68
2022-09-15T06:34:11.739Z,84.59
2022-09-15T06:35:11.713Z,84.85
2022-09-15T06:36:11.930Z,84.77
2022-09-15T06:37:11.689Z,85.11
2022-09-15T06:38:11.679Z,84.94
2022-09-15T06:39:11.670Z,85.72
2022-09-15T06:40:11.751Z,85.90
2022-09-15T06:41:11.649Z,86.35
2022-09-15T06:42:13.749Z,87.16
2022-09-15T06:43:11.628Z,88.54
2022-09-15T06:44:11.616Z,89.02
2022-09-15T06:45:11.611Z,89.88
2022-09-15T06:46:11.651Z,90.76
2022-09-15T06:47:11.580Z,91.16
2022-09-15T06:48:23.931Z,91.56
2022-09-15T06:49:12.571Z,91.46
2022-09-15T06:50:11.579Z,91.66
2022-09-15T06:51:11.564Z,92.78
2022-09-15T06:52:11.529Z,93.19
2022-09-15T06:53:11.534Z,93.40
2022-09-15T06:54:11.679Z,93.19
2022-09-15T06:55:11.532Z,92.57
2022-09-15T06:56:11.540Z,93.30
2022-09-15T06:57:11.499Z,93.30
2022-09-15T06:58:11.504Z,95.21
2022-09-15T06:59:11.620Z,95.76
2022-09-15T07:00:11.449Z,94.76
2022-09-15T07:01:11.430Z,94.92
2022-09-15T07:02:11.600Z,96.13
2022-09-15T07:03:11.552Z,95.74
2022-09-15T07:04:11.424Z,95.41
2022-09-15T07:05:11.561Z,95.63
2022-09-15T07:06:11.380Z,95.25
2022-09-15T07:07:11.369Z,94.44
2022-09-15T07:08:11.359Z,94.76
2022-09-15T07:09:11.345Z,95.85
2022-09-15T07:10:11.337Z,95.25
2022-09-15T07:11:11.490Z,95.63
2022-09-15T07:12:11.322Z,95.90
2022-09-15T07:13:11.301Z,95.85
2022-09-15T07:14:11.308Z,96.07
2022-09-15T07:15:11.284Z,96.07
2022-09-15T07:16:11.290Z,97.08
2022-09-15T07:17:11.515Z,97.76
2022-09-15T07:18:11.255Z,99.39
2022-09-15T07:19:11.241Z,99.86
2022-09-15T07:20:11.233Z,100.47
2022-09-15T07:21:11.232Z,100.59
2022-09-15T07:22:11.205Z,99.51
2022-09-15T07:23:11.362Z,100.04
2022-09-15T07:24:11.186Z,99.51
2022-09-15T07:25:11.170Z,99.27
2022-09-15T07:26:11.166Z,99.04
2022-09-15T07:27:11.170Z,99.63
2022-09-15T07:28:11.142Z,100.22
2022-09-15T07:29:11.290Z,101.20
2022-09-15T07:30:11.128Z,102.06
2022-09-15T07:31:11.186Z,104.23
2022-09-15T07:32:11.090Z,106.09
2022-09-15T07:33:11.091Z,105.68
2022-09-15T07:34:11.080Z,106.36
2022-09-15T07:35:11.321Z,106.49
2022-09-15T07:36:11.062Z,107.52
2022-09-15T07:37:11.045Z,107.04
2022-09-15T07:38:11.037Z,108.29
2022-09-15T07:39:11.022Z,110.37
2022-09-15T07:40:11.131Z,112.60
2022-09-15T07:41:11.179Z,113.60
2022-09-15T07:42:11.000Z,114.77
2022-09-15T07:43:10.981Z,115.80
2022-09-15T07:44:10.961Z,116.94
2022-09-15T07:45:10.961Z,118.43
2022-09-15T07:46:10.973Z,120.40
2022-09-15T07:47:11.092Z,122.07
2022-09-15T07:48:10.933Z,123.34
2022-09-15T07:49:10.938Z,123.98
2022-09-15T07:50:10.906Z,123.61
2022-09-15T07:51:10.885Z,122.97
2022-09-15T07:52:10.892Z,123.15
2022-09-15T07:53:11.037Z,123.70
2022-09-15T07:54:10.851Z,123.34
2022-09-15T07:55:10.851Z,123.25
2022-09-15T07:56:10.848Z,123.25
2022-09-15T07:57:10.822Z,124.44
2022-09-15T07:58:10.820Z,123.25
2022-09-15T07:59:10.960Z,124.81
2022-09-15T08:00:10.803Z,126.42
2022-09-15T08:01:10.836Z,126.90
2022-09-15T08:02:10.823Z,127.29
2022-09-15T08:03:10.761Z,127.09
2022-09-15T08:04:10.785Z,126.90
2022-09-15T08:05:10.890Z,128.56
2022-09-15T08:06:10.739Z,130.27
2022-09-15T08:07:10.721Z,129.76
2022-09-15T08:08:10.702Z,130.07
2022-09-15T08:09:10.692Z,129.86
2022-09-15T08:10:10.693Z,128.86
2022-09-15T08:11:14.012Z,128.86
2022-09-15T08:12:11.667Z,128.37
2022-09-15T08:13:10.652Z,128.86
2022-09-15T08:14:10.642Z,128.17
2022-09-15T08:15:10.631Z,129.86
2022-09-15T08:16:10.676Z,129.26
2022-09-15T08:17:12.561Z,130.17
2022-09-15T08:18:10.601Z,131.40
2022-09-15T08:19:10.591Z,131.92
2022-09-15T08:20:10.575Z,134.47
2022-09-15T08:21:10.569Z,137.12
2022-09-15T08:22:10.561Z,137.12
2022-09-15T08:23:10.711Z,138.71
2022-09-15T08:24:10.537Z,138.37
2022-09-15T08:25:10.540Z,136.45
2022-09-15T08:26:13.825Z,137.01
2022-09-15T08:27:10.502Z,136.56
2022-09-15T08:28:10.485Z,137.12
2022-09-15T08:29:10.653Z,136.34
2022-09-15T08:30:10.547Z,136.67
2022-09-15T08:31:10.491Z,136.22
2022-09-15T08:32:10.462Z,136.11
2022-09-15T08:33:11.103Z,137.91
2022-09-15T08:34:10.433Z,139.88
2022-09-15T08:35:10.619Z,140.35
2022-09-15T08:36:10.403Z,140.94
2022-09-15T08:37:10.393Z,142.02
2022-09-15T08:38:10.394Z,142.99
2022-09-15T08:39:10.394Z,141.54
2022-09-15T08:40:11.532Z,141.06
2022-09-15T08:41:10.354Z,142.51
2022-09-15T08:42:10.345Z,145.11
2022-09-15T08:43:10.333Z,146.00
2022-09-15T08:44:10.317Z,144.35
2022-09-15T08:45:10.346Z,146.12
2022-09-15T08:46:10.546Z,146.77
2022-09-15T08:47:10.302Z,148.33
2022-09-15T08:48:10.293Z,148.99
2022-09-15T08:49:10.264Z,151.29
2022-09-15T08:50:10.255Z,151.02
2022-09-15T08:51:10.241Z,150.20
2022-09-15T08:52:10.393Z,151.29
2022-09-15T08:53:10.213Z,152.54
2022-09-15T08:54:10.207Z,153.38
2022-09-15T08:55:10.191Z,151.98
2022-09-15T08:56:10.230Z,153.52
2022-09-15T08:57:10.173Z,154.80
2022-09-15T08:58:10.354Z,152.68
2022-09-15T08:59:10.167Z,150.74
2022-09-15T09:00:10.152Z,149.26
2022-09-15T09:01:10.273Z,151.02
2022-09-15T09:02:10.210Z,152.12
2022-09-15T09:03:10.159Z,151.57
2022-09-15T09:04:10.268Z,149.80
2022-09-15T09:05:10.093Z,151.70
2022-09-15T09:06:10.782Z,151.57
2022-09-15T09:07:10.062Z,154.51
2022-09-15T09:08:10.076Z,159.54
2022-09-15T09:09:10.046Z,162.17
2022-09-15T09:10:10.191Z,164.90
2022-09-15T09:11:10.029Z,163.76
2022-09-15T09:12:10.046Z,163.44
2022-09-15T09:13:09.993Z,164.90
2022-09-15T09:14:10.001Z,164.57
2022-09-15T09:15:10.132Z,165.71
2022-09-15T09:16:10.078Z,165.88
2022-09-15T09:17:09.973Z,166.88
2022-09-15T09:18:09.945Z,167.21
2022-09-15T09:19:09.933Z,167.04
2022-09-15T09:20:09.925Z,169.07
2022-09-15T09:21:10.093Z,172.57
2022-09-15T09:22:09.904Z,175.29
2022-09-15T09:23:09.891Z,175.84
2022-09-15T09:24:09.898Z,178.29
2022-09-15T09:25:26.238Z,177.71
2022-09-15T09:26:11.029Z,178.48
2022-09-15T09:27:09.853Z,176.03
2022-09-15T09:28:09.844Z,176.21
2022-09-15T09:29:09.832Z,178.09
2022-09-15T09:30:09.825Z,178.29
2022-09-15T09:31:09.850Z,178.86
2022-09-15T09:32:10.181Z,182.58
2022-09-15T09:33:09.786Z,184.60
2022-09-15T09:34:09.782Z,185.83
2022-09-15T09:35:09.768Z,186.04
2022-09-15T09:36:09.757Z,186.45
2022-09-15T09:37:09.932Z,185.41
2022-09-15T09:38:09.769Z,187.21
2022-09-15T09:39:09.744Z,188.94
2022-09-15T09:40:09.812Z,187.75
2022-09-15T09:41:09.716Z,187.21
2022-09-15T09:42:09.694Z,188.07
2022-09-15T09:43:10.422Z,187.53
2022-09-15T09:44:09.675Z,186.15
2022-09-15T09:45:09.665Z,186.89
2022-09-15T09:46:09.735Z,186.89
2022-09-15T09:47:09.627Z,185.83
2022-09-15T09:48:09.625Z,187.10
2022-09-15T09:49:10.705Z,185.83
2022-09-15T09:50:09.605Z,185.10
2022-09-15T09:51:09.594Z,187.53
2022-09-15T09:52:09.636Z,190.47
2022-09-15T09:53:09.569Z,190.36
2022-09-15T09:54:09.565Z,192.14
2022-09-15T09:55:09.715Z,192.37
2022-09-15T09:56:09.539Z,193.85
2022-09-15T09:57:09.533Z,195.70
2022-09-15T09:58:09.521Z,197.82
2022-09-15T09:59:09.503Z,199.50
2022-09-15T10:00:09.494Z,201.59
2022-09-15T10:01:09.570Z,202.96
2022-09-15T10:02:09.477Z,203.21
2022-09-15T10:03:09.507Z,208.90
2022-09-15T10:04:09.505Z,213.39
2022-09-15T10:05:09.499Z,218.65
2022-09-15T10:06:09.455Z,219.38
2022-09-15T10:07:09.596Z,220.86
2022-09-15T10:08:09.411Z,222.05
2022-09-15T10:09:09.465Z,223.41
2022-09-15T10:10:09.390Z,224.48
2022-09-15T10:11:09.375Z,227.12
2022-09-15T10:12:09.363Z,230.15
2022-09-15T10:13:09.505Z,233.93
2022-09-15T10:14:09.344Z,234.93
2022-09-15T10:15:09.335Z,235.27
2022-09-15T10:16:09.461Z,234.59
2022-09-15T10:17:09.296Z,233.43
2022-09-15T10:18:09.666Z,234.93
2022-09-15T10:19:09.299Z,237.82
2022-09-15T10:20:09.277Z,242.75
2022-09-15T10:21:09.272Z,244.56
2022-09-15T10:22:09.260Z,245.29
2022-09-15T10:23:09.243Z,245.29
2022-09-15T10:24:09.384Z,242.75
2022-09-15T10:25:09.262Z,245.11
2022-09-15T10:26:10.070Z,242.75
2022-09-15T10:27:09.219Z,241.32
2022-09-15T10:28:09.205Z,239.39
2022-09-15T10:29:09.187Z,237.48
2022-09-15T10:30:09.326Z,236.11
2022-09-15T10:31:09.161Z,235.10
2022-09-15T10:32:09.226Z,234.26
2022-09-15T10:33:09.140Z,236.45
2022-09-15T10:34:09.132Z,238.17
2022-09-15T10:35:09.121Z,238.86
2022-09-15T10:36:09.274Z,239.74
2022-09-15T10:37:09.908Z,236.97
2022-09-15T10:38:09.088Z,238.17
2022-09-15T10:39:09.088Z,240.62
2022-09-15T10:40:09.147Z,241.32
2022-09-15T10:41:09.048Z,239.74
2022-09-15T10:42:09.223Z,242.04
2022-09-15T10:43:09.118Z,239.04
2022-09-15T10:44:09.018Z,238.86
2022-09-15T10:45:09.010Z,238.52
2022-09-15T10:46:09.101Z,237.48
2022-09-15T10:47:08.997Z,236.11
2022-09-15T10:48:09.150Z,236.11
2022-09-15T10:49:08.961Z,233.43
2022-09-15T10:50:08.956Z,233.26
2022-09-15T10:51:08.945Z,231.45
2022-09-15T10:52:09.581Z,232.93
2022-09-15T10:53:09.101Z,229.51
2022-09-15T10:54:08.910Z,229.51
2022-09-15T10:55:08.897Z,227.28
2022-09-15T10:56:08.876Z,228.55
2022-09-15T10:57:08.892Z,226.97
2022-09-15T10:58:08.868Z,223.41
2022-09-15T10:59:09.066Z,223.26
2022-09-15T11:00:08.842Z,223.72
2022-09-15T11:01:08.981Z,222.96
2022-09-15T11:02:08.896Z,221.90
2022-09-15T11:03:08.821Z,221.45
2022-09-15T11:04:08.797Z,222.20
2022-09-15T11:05:08.993Z,221.90
2022-09-15T11:06:08.777Z,221.15
2022-09-15T11:07:08.795Z,220.26
2022-09-15T11:08:08.764Z,220.26
2022-09-15T11:09:08.749Z,218.21
2022-09-15T11:10:09.457Z,218.50
2022-09-15T11:11:08.751Z,217.63
2022-09-15T11:12:08.714Z,219.23
2022-09-15T11:13:08.701Z,218.21
2022-09-15T11:14:08.723Z,216.77
2022-09-15T11:15:08.694Z,217.92
2022-09-15T11:16:08.894Z,215.63
2022-09-15T11:17:08.731Z,219.53
2022-09-15T11:18:08.662Z,224.48
2022-09-15T11:19:08.645Z,227.60
2022-09-15T11:20:08.701Z,233.76
2022-09-15T11:21:09.582Z,234.76
2022-09-15T11:22:08.956Z,238.00
2022-09-15T11:23:08.597Z,238.69
2022-09-15T11:24:08.592Z,241.68
2022-09-15T11:25:08.567Z,242.39
2022-09-15T11:26:08.587Z,242.04
2022-09-15T11:27:08.566Z,248.45
2022-09-15T11:28:08.718Z,252.46
2022-09-15T11:29:08.554Z,255.21
2022-09-15T11:30:08.556Z,256.01
2022-09-15T11:31:08.541Z,258.43
2022-09-15T11:32:08.503Z,258.43
2022-09-15T11:33:08.489Z,259.45
2022-09-15T11:34:08.650Z,256.41
2022-09-15T11:35:08.470Z,256.01
2022-09-15T11:36:08.457Z,256.61
2022-09-15T11:37:08.446Z,256.41
2022-09-15T11:38:12.827Z,256.81
2022-09-15T11:39:08.446Z,259.04
2022-09-15T11:40:08.645Z,260.89
2022-09-15T11:41:08.404Z,262.99
2022-09-15T11:42:08.408Z,265.11
2022-09-15T11:43:08.381Z,266.19
2022-09-15T11:44:08.370Z,268.80
2022-09-15T11:45:08.591Z,267.93
2022-09-15T11:46:08.399Z,261.73
2022-09-15T11:47:08.349Z,261.10
2022-09-15T11:48:08.338Z,260.69
2022-09-15T11:49:08.321Z,261.73
2022-09-15T11:50:08.361Z,259.66
2022-09-15T11:51:08.506Z,261.31
2022-09-15T11:52:08.300Z,261.31
2022-09-15T11:53:08.289Z,262.15
2022-09-15T11:54:08.273Z,263.62
2022-09-15T11:55:08.268Z,264.90
2022-09-15T11:56:08.240Z,262.78
2022-09-15T11:57:08.478Z,265.97
2022-09-15T11:58:08.229Z,270.13
2022-09-15T11:59:08.208Z,268.14
2022-09-15T12:00:08.191Z,270.58
2022-09-15T12:01:08.208Z,272.83
2022-09-15T12:02:08.224Z,271.92
2022-09-15T12:03:08.407Z,271.25
2022-09-15T12:04:08.171Z,268.80
2022-09-15T12:05:08.144Z,269.47
2022-09-15T12:06:08.139Z,270.80
2022-09-15T12:07:09.939Z,269.24
2022-09-15T12:08:08.123Z,267.27
2022-09-15T12:09:08.284Z,266.40
2022-09-15T12:10:08.112Z,265.97
2022-09-15T12:11:08.100Z,265.11
2022-09-15T12:12:08.069Z,264.05
2022-09-15T12:13:08.073Z,265.54
2022-09-15T12:14:08.050Z,265.11
2022-09-15T12:15:08.264Z,264.68
2022-09-15T12:16:08.062Z,263.41
2022-09-15T12:17:08.021Z,264.47
2022-09-15T12:18:27.344Z,264.90
2022-09-15T12:19:09.003Z,262.15
2022-09-15T12:20:08.411Z,264.90
2022-09-15T12:21:08.018Z,264.26
2022-09-15T12:22:07.972Z,262.99
2022-09-15T12:23:07.962Z,262.57
2022-09-15T12:24:07.941Z,261.94
2022-09-15T12:25:07.953Z,259.25
2022-09-15T12:26:08.075Z,256.81
2022-09-15T12:27:08.039Z,254.82
2022-09-15T12:28:07.906Z,251.11
2022-09-15T12:29:07.904Z,250.73
2022-09-15T12:30:07.878Z,249.20
2022-09-15T12:31:07.917Z,249.58
2022-09-15T12:32:08.021Z,246.95
2022-09-15T12:33:07.873Z,244.01
2022-09-15T12:34:07.840Z,243.83
2022-09-15T12:35:12.785Z,243.83
2022-09-15T12:36:08.816Z,242.75
2022-09-15T12:37:07.809Z,246.21
2022-09-15T12:38:08.003Z,245.48
2022-09-15T12:39:07.823Z,246.77
2022-09-15T12:40:07.859Z,245.84
2022-09-15T12:41:07.773Z,245.11
2022-09-15T12:42:07.751Z,246.58
2022-09-15T12:43:07.748Z,244.38
2022-09-15T12:44:07.891Z,242.21
2022-09-15T12:45:07.722Z,240.26